createdAt,value
2023-02-13T00:01:57.527Z,101756.22
2023-02-13T00:04:28.831Z,101754.50
2023-02-13T00:06:57.567Z,101750.97
2023-02-13T00:09:26.188Z,101743.94
2023-02-13T00:11:58.026Z,101749.19
2023-02-13T00:14:29.024Z,101761.44
2023-02-13T00:16:57.030Z,101752.69
2023-02-13T00:19:25.134Z,101759.66
2023-02-13T00:21:53.593Z,101757.03
2023-02-13T00:24:21.980Z,101758.75
2023-02-13T00:26:52.665Z,101756.97
2023-02-13T00:29:22.937Z,101763.06
2023-02-13T00:31:51.325Z,101756.94
2023-02-13T00:34:20.978Z,101765.66
2023-02-13T00:36:49.387Z,101763.97
2023-02-13T00:39:17.727Z,101767.47
2023-02-13T00:41:46.683Z,101774.44
2023-02-13T00:44:17.426Z,101764.81
2023-02-13T00:46:46.179Z,101762.19
2023-02-13T00:49:14.623Z,101773.53
2023-02-13T00:51:42.768Z,101763.00
2023-02-13T00:54:11.125Z,101758.63
2023-02-13T00:56:59.688Z,101752.53
2023-02-13T00:59:27.916Z,101760.38
2023-02-13T01:01:57.792Z,101766.50
2023-02-13T01:04:26.426Z,101759.50
2023-02-13T01:06:57.514Z,101755.09
2023-02-13T01:09:25.851Z,101758.63
2023-02-13T01:11:54.069Z,101755.97
2023-02-13T01:14:22.245Z,101755.94
2023-02-13T01:17:01.008Z,101753.31
2023-02-13T01:19:29.259Z,101758.53
2023-02-13T01:21:57.495Z,101759.41
2023-02-13T01:24:25.670Z,101763.78
2023-02-13T01:26:53.667Z,101775.13
2023-02-13T01:29:21.710Z,101762.91
2023-02-13T01:31:53.616Z,101772.50
2023-02-13T01:34:21.540Z,101750.56
2023-02-13T01:36:54.888Z,101758.44
2023-02-13T01:39:23.267Z,101768.03
2023-02-13T01:41:51.523Z,101764.56
2023-02-13T01:44:45.555Z,101769.78
2023-02-13T01:47:33.236Z,101765.41
2023-02-13T01:50:23.438Z,101776.81
2023-02-13T01:53:14.735Z,101756.66
2023-02-13T01:56:05.895Z,101772.41
2023-02-13T01:58:36.700Z,101780.22
2023-02-13T02:01:06.450Z,101774.09
2023-02-13T02:03:51.958Z,101776.69
2023-02-13T02:06:26.610Z,101775.03
2023-02-13T02:09:02.820Z,101781.06
2023-02-13T02:11:43.608Z,101782.78
2023-02-13T02:14:12.391Z,101787.19
2023-02-13T02:16:41.064Z,101795.91
2023-02-13T02:19:32.430Z,101795.03
2023-02-13T02:22:25.220Z,101811.63
2023-02-13T02:25:13.999Z,101813.38
2023-02-13T02:27:54.179Z,101811.53
2023-02-13T02:31:01.185Z,101815.91
2023-02-13T02:33:42.472Z,101816.78
2023-02-13T02:36:29.165Z,101816.75
2023-02-13T02:39:03.230Z,101816.75
2023-02-13T02:42:09.492Z,101822.91
2023-02-13T02:44:47.085Z,101829.88
2023-02-13T02:47:43.165Z,101820.28
2023-02-13T02:50:27.481Z,101821.09
2023-02-13T02:53:06.836Z,101814.03
2023-02-13T02:55:40.931Z,101821.03
2023-02-13T02:58:33.191Z,101814.88
2023-02-13T03:01:20.880Z,101824.53
2023-02-13T03:04:10.714Z,101823.66
2023-02-13T03:06:58.724Z,101825.38
2023-02-13T03:09:51.009Z,101820.94
2023-02-13T03:12:43.069Z,101821.00
2023-02-13T03:15:11.735Z,101814.88
2023-02-13T03:17:59.331Z,101807.78
2023-02-13T03:20:55.581Z,101812.19
2023-02-13T03:23:31.209Z,101808.66
2023-02-13T03:26:50.875Z,101814.78
2023-02-13T03:30:07.989Z,101827.03
2023-02-13T03:32:52.425Z,101833.97
2023-02-13T03:36:01.290Z,101830.47
2023-02-13T03:38:36.876Z,101840.06
2023-02-13T03:41:20.608Z,101841.81
2023-02-13T03:44:14.633Z,101843.53
2023-02-13T03:46:46.366Z,101841.81
2023-02-13T03:49:51.130Z,101833.91
2023-02-13T03:52:24.698Z,101844.41
2023-02-13T03:55:20.308Z,101844.41
2023-02-13T03:58:07.961Z,101848.81
2023-02-13T04:00:41.699Z,101836.53
2023-02-13T04:03:36.151Z,101842.66
2023-02-13T04:06:11.473Z,101853.19
2023-02-13T04:08:40.466Z,101855.75
2023-02-13T04:11:16.058Z,101852.25
2023-02-13T04:13:56.109Z,101846.97
2023-02-13T04:16:30.399Z,101858.31
2023-02-13T04:18:59.638Z,101864.44
2023-02-13T04:21:28.135Z,101874.97
2023-02-13T04:23:56.378Z,101877.53
2023-02-13T04:26:24.709Z,101870.56
2023-02-13T04:28:52.713Z,101879.34
2023-02-13T04:31:20.796Z,101872.34
2023-02-13T04:33:49.034Z,101887.25
2023-02-13T04:36:18.213Z,101882.94
2023-02-13T04:38:46.495Z,101868.13
2023-02-13T04:41:14.585Z,101865.66
2023-02-13T04:43:43.698Z,101859.59
2023-02-13T04:46:11.786Z,101858.88
2023-02-13T04:48:41.355Z,101861.59
2023-02-13T04:51:09.409Z,101859.13
2023-02-13T04:53:38.069Z,101853.16
2023-02-13T04:56:06.744Z,101863.72
2023-02-13T04:58:35.066Z,101854.13
2023-02-13T05:01:03.154Z,101867.25
2023-02-13T05:03:31.347Z,101866.44
2023-02-13T05:05:59.551Z,101857.72
2023-02-13T05:08:30.392Z,101867.41
2023-02-13T05:10:59.003Z,101867.41
2023-02-13T05:13:33.817Z,101867.50
2023-02-13T05:16:02.504Z,101863.16
2023-02-13T05:18:31.130Z,101871.09
2023-02-13T05:21:18.064Z,101869.41
2023-02-13T05:23:46.641Z,101871.13
2023-02-13T05:26:15.235Z,101873.84
2023-02-13T05:29:02.084Z,101875.59
2023-02-13T05:31:30.138Z,101879.16
2023-02-13T05:33:58.440Z,101880.97
2023-02-13T05:36:26.494Z,101875.72
2023-02-13T05:38:55.848Z,101874.03
2023-02-13T05:41:24.686Z,101881.06
2023-02-13T05:43:52.668Z,101887.25
2023-02-13T05:46:20.843Z,101889.06
2023-02-13T05:48:52.303Z,101881.19
2023-02-13T05:51:20.951Z,101876.78
2023-02-13T05:53:52.070Z,101889.94
2023-02-13T05:56:21.555Z,101888.25
2023-02-13T05:58:53.163Z,101877.69
2023-02-13T06:01:22.122Z,101889.16
2023-02-13T06:03:50.951Z,101890.91
2023-02-13T06:06:21.694Z,101891.78
2023-02-13T06:08:50.233Z,101888.25
2023-02-13T06:11:21.786Z,101897.03
2023-02-13T06:13:50.270Z,101900.50
2023-02-13T06:16:18.836Z,101895.22
2023-02-13T06:18:47.263Z,101897.84
2023-02-13T06:21:15.284Z,101896.94
2023-02-13T06:23:47.001Z,101892.50
2023-02-13T06:26:15.304Z,101892.50
2023-02-13T06:28:44.052Z,101878.38
2023-02-13T06:31:12.742Z,101882.66
2023-02-13T06:33:41.578Z,101881.69
2023-02-13T06:36:10.164Z,101872.75
2023-02-13T06:38:38.709Z,101878.75
2023-02-13T06:41:07.344Z,101879.56
2023-02-13T06:43:35.190Z,101884.03
2023-02-13T06:46:07.674Z,101882.38
2023-02-13T06:48:38.513Z,101883.97
2023-02-13T06:51:06.734Z,101867.13
2023-02-13T06:53:34.916Z,101868.00
2023-02-13T06:56:08.677Z,101878.56
2023-02-13T06:58:37.319Z,101863.53
2023-02-13T07:01:05.832Z,101859.03
2023-02-13T07:03:33.825Z,101865.22
2023-02-13T07:06:02.460Z,101862.66
2023-02-13T07:08:31.332Z,101853.84
2023-02-13T07:10:59.854Z,101862.75
2023-02-13T07:13:28.826Z,101858.47
2023-02-13T07:16:01.549Z,101855.88
2023-02-13T07:18:30.249Z,101861.91
2023-02-13T07:20:59.323Z,101855.47
2023-02-13T07:23:27.908Z,101858.81
2023-02-13T07:25:55.691Z,101861.41
2023-02-13T07:28:28.514Z,101866.69
2023-02-13T07:30:57.298Z,101872.78
2023-02-13T07:33:27.838Z,101872.06
2023-02-13T07:35:56.075Z,101867.50
2023-02-13T07:38:24.763Z,101862.81
2023-02-13T07:40:53.076Z,101865.19
2023-02-13T07:43:21.498Z,101863.16
2023-02-13T07:45:52.539Z,101855.78
2023-02-13T07:48:25.525Z,101861.75
2023-02-13T07:51:00.775Z,101873.41
2023-02-13T07:53:30.781Z,101876.31
2023-02-13T07:56:02.549Z,101880.69
2023-02-13T07:58:30.922Z,101876.84
2023-02-13T08:00:59.862Z,101868.47
2023-02-13T08:03:28.533Z,101868.78
2023-02-13T08:05:56.982Z,101848.28
2023-02-13T08:08:29.707Z,101855.44
2023-02-13T08:11:23.250Z,101848.66
2023-02-13T08:13:51.178Z,101844.72
2023-02-13T08:16:21.183Z,101838.66
2023-02-13T08:18:49.943Z,101847.34
2023-02-13T08:21:20.531Z,101839.53
2023-02-13T08:23:52.322Z,101845.50
2023-02-13T08:26:21.400Z,101845.22
2023-02-13T08:28:49.960Z,101851.56
2023-02-13T08:31:18.194Z,101846.03
2023-02-13T08:33:47.383Z,101837.22
2023-02-13T08:36:15.817Z,101836.94
2023-02-13T08:38:43.824Z,101834.97
2023-02-13T08:41:11.950Z,101835.78
2023-02-13T08:43:40.640Z,101828.34
2023-02-13T08:46:15.086Z,101832.59
2023-02-13T08:48:43.441Z,101826.41
2023-02-13T08:51:16.107Z,101823.84
2023-02-13T08:53:44.378Z,101825.88
2023-02-13T08:56:15.990Z,101822.31
2023-02-13T08:58:44.821Z,101827.53
2023-02-13T09:01:18.099Z,101826.53
2023-02-13T09:03:46.687Z,101814.97
2023-02-13T09:06:17.991Z,101812.47
2023-02-13T09:08:46.842Z,101810.22
2023-02-13T09:11:18.129Z,101804.00
2023-02-13T09:13:48.933Z,101804.91
2023-02-13T09:16:17.707Z,101794.13
2023-02-13T09:18:48.855Z,101791.09
2023-02-13T09:21:17.599Z,101793.16
2023-02-13T09:23:46.162Z,101778.63
2023-02-13T09:26:15.991Z,101774.84
2023-02-13T09:28:44.857Z,101772.06
2023-02-13T09:31:17.907Z,101780.09
2023-02-13T09:33:48.758Z,101785.81
2023-02-13T09:36:22.876Z,101785.50
2023-02-13T09:38:58.180Z,101770.72
2023-02-13T09:41:40.267Z,101770.22
2023-02-13T09:44:34.298Z,101765.06
2023-02-13T09:47:19.127Z,101761.91
2023-02-13T09:49:56.397Z,101751.56
2023-02-13T09:52:26.782Z,101758.06
2023-02-13T09:54:55.821Z,101750.63
2023-02-13T09:57:31.050Z,101752.25
2023-02-13T10:00:23.874Z,101744.28
2023-02-13T10:03:00.295Z,101750.59
2023-02-13T10:05:49.913Z,101741.81
2023-02-13T10:08:40.740Z,101731.84
2023-02-13T10:11:52.588Z,101742.59
2023-02-13T10:14:42.700Z,101722.38
2023-02-13T10:17:14.865Z,101716.28
2023-02-13T10:20:10.515Z,101725.63
2023-02-13T10:22:44.936Z,101715.00
2023-02-13T10:25:28.140Z,101719.44
2023-02-13T10:28:01.343Z,101710.81
2023-02-13T10:30:39.946Z,101712.59
2023-02-13T10:33:22.076Z,101710.66
2023-02-13T10:36:01.688Z,101714.91
2023-02-13T10:38:34.303Z,101695.09
2023-02-13T10:41:15.693Z,101701.50
2023-02-13T10:55:21.092Z,101685.81
2023-02-13T10:57:58.472Z,101689.84
2023-02-13T11:00:38.359Z,101688.66
2023-02-13T11:03:18.102Z,101682.69
2023-02-13T11:05:46.677Z,101683.22
2023-02-13T11:08:22.233Z,101684.38
2023-02-13T11:10:51.056Z,101686.34
2023-02-13T11:13:24.535Z,101677.66
2023-02-13T11:16:03.659Z,101674.72
2023-02-13T11:18:39.390Z,101677.34
2023-02-13T11:21:16.910Z,101668.09
2023-02-13T11:23:50.639Z,101662.47
2023-02-13T11:26:24.358Z,101661.91
2023-02-13T11:28:58.449Z,101647.66
2023-02-13T11:31:30.543Z,101645.41
2023-02-13T11:34:04.073Z,101645.84
2023-02-13T11:36:34.239Z,101636.97
2023-02-13T11:39:07.760Z,101630.53
2023-02-13T11:41:41.910Z,101629.09
2023-02-13T11:44:23.663Z,101630.59
2023-02-13T11:46:53.837Z,101621.19
2023-02-13T11:49:34.234Z,101624.47
2023-02-13T11:52:04.698Z,101614.75
2023-02-13T11:54:37.224Z,101610.78
2023-02-13T11:57:28.996Z,101609.66
2023-02-13T12:00:01.301Z,101606.00
2023-02-13T12:02:32.395Z,101606.28
2023-02-13T12:05:23.662Z,101602.53
2023-02-13T12:07:52.501Z,101599.38
2023-02-13T12:10:29.478Z,101591.31
2023-02-13T12:13:04.377Z,101582.72
2023-02-13T12:15:36.306Z,101582.22
2023-02-13T12:18:11.338Z,101571.66
2023-02-13T12:21:03.840Z,101572.75
2023-02-13T12:23:58.423Z,101574.09
2023-02-13T12:26:32.901Z,101566.88
2023-02-13T12:29:38.797Z,101563.88
2023-02-13T12:32:20.522Z,101557.72
2023-02-13T12:35:16.297Z,101554.53
2023-02-13T12:38:05.395Z,101555.09
2023-02-13T12:40:59.758Z,101563.84
2023-02-13T12:43:39.012Z,101562.03
2023-02-13T12:46:32.114Z,101555.31
2023-02-13T12:49:21.160Z,101548.34
2023-02-13T12:52:04.217Z,101554.16
2023-02-13T12:55:04.114Z,101554.41
2023-02-13T12:57:40.780Z,101550.97
2023-02-13T13:00:23.955Z,101553.50
2023-02-13T13:03:31.209Z,101544.66
2023-02-13T13:06:27.994Z,101545.44
2023-02-13T13:09:01.908Z,101536.22
2023-02-13T13:11:54.079Z,101536.91
2023-02-13T13:14:44.414Z,101539.19
2023-02-13T13:17:40.743Z,101529.47
2023-02-13T13:20:28.951Z,101537.47
2023-02-13T13:23:05.146Z,101532.69
2023-02-13T13:25:39.023Z,101526.63
2023-02-13T13:28:25.419Z,101512.38
2023-02-13T13:30:54.302Z,101517.31
2023-02-13T13:33:25.206Z,101521.47
2023-02-13T13:36:08.312Z,101515.63
2023-02-13T13:38:55.339Z,101520.53
2023-02-13T13:41:38.225Z,101512.06
2023-02-13T13:44:44.024Z,101510.81
2023-02-13T13:47:32.602Z,101498.59
2023-02-13T13:50:02.471Z,101499.63
2023-02-13T13:52:38.120Z,101502.56
2023-02-13T13:55:07.989Z,101489.47
2023-02-13T13:57:43.397Z,101488.84
2023-02-13T14:00:28.440Z,101487.25
2023-02-13T14:03:00.040Z,101489.00
2023-02-13T14:05:33.113Z,101490.00
2023-02-13T14:08:04.581Z,101481.72
2023-02-13T14:10:33.298Z,101474.81
2023-02-13T14:13:08.118Z,101473.81
2023-02-13T14:15:40.027Z,101470.88
2023-02-13T14:18:21.157Z,101466.22
2023-02-13T14:20:54.403Z,101462.63
2023-02-13T14:23:50.581Z,101460.91
2023-02-13T14:26:21.224Z,101450.47
2023-02-13T14:28:49.865Z,101450.47
2023-02-13T14:31:36.184Z,101455.13
2023-02-13T14:34:07.623Z,101455.66
2023-02-13T14:36:39.257Z,101446.34
2023-02-13T14:39:17.118Z,101447.00
2023-02-13T14:41:49.623Z,101445.69
2023-02-13T14:44:27.664Z,101451.22
2023-02-13T14:46:57.116Z,101444.25
2023-02-13T14:49:31.220Z,101443.47
2023-02-13T14:52:04.743Z,101444.63
2023-02-13T14:54:59.348Z,101442.94
2023-02-13T14:57:35.483Z,101447.28
2023-02-13T15:00:22.630Z,101437.22
2023-02-13T15:02:54.750Z,101437.28
2023-02-13T15:05:28.740Z,101441.72
2023-02-13T15:08:07.543Z,101420.31
2023-02-13T15:10:47.345Z,101418.31
2023-02-13T15:13:22.923Z,101406.72
2023-02-13T15:16:00.026Z,101411.09
2023-02-13T15:18:36.041Z,101406.94
2023-02-13T15:21:04.273Z,101407.09
2023-02-13T15:23:33.603Z,101406.31
2023-02-13T15:26:06.265Z,101400.44
2023-02-13T15:28:36.452Z,101398.97
2023-02-13T15:31:22.847Z,101415.94
2023-02-13T15:33:52.129Z,101410.00
2023-02-13T15:36:23.357Z,101415.59
2023-02-13T15:39:09.654Z,101416.69
2023-02-13T15:41:41.155Z,101414.22
2023-02-13T15:44:18.704Z,101412.66
2023-02-13T15:46:49.075Z,101412.69
2023-02-13T15:49:25.648Z,101398.59
2023-02-13T15:52:09.421Z,101413.47
2023-02-13T15:54:37.362Z,101424.34
2023-02-13T15:57:12.923Z,101413.84
2023-02-13T15:59:41.454Z,101413.09
2023-02-13T16:02:19.810Z,101403.47
2023-02-13T16:04:51.164Z,101406.13
2023-02-13T16:07:57.916Z,101403.53
2023-02-13T16:10:34.609Z,101398.16
2023-02-13T16:13:07.478Z,101392.09
2023-02-13T16:15:48.358Z,101382.53
2023-02-13T16:18:20.810Z,101384.28
2023-02-13T16:20:54.560Z,101379.78
2023-02-13T16:23:25.270Z,101382.44
2023-02-13T16:26:02.752Z,101380.75
2023-02-13T16:28:33.366Z,101369.19
2023-02-13T16:31:06.017Z,101375.31
2023-02-13T16:33:36.725Z,101373.47
2023-02-13T16:36:14.206Z,101372.63
2023-02-13T16:38:50.138Z,101358.59
2023-02-13T16:41:29.047Z,101359.47
2023-02-13T16:44:03.860Z,101340.06
2023-02-13T16:46:39.204Z,101337.47
2023-02-13T16:49:10.272Z,101325.25
2023-02-13T16:51:52.098Z,101335.09
2023-02-13T16:54:30.279Z,101324.66
2023-02-13T16:57:24.244Z,101329.09
2023-02-13T17:00:00.390Z,101321.03
2023-02-13T17:02:32.609Z,101327.09
2023-02-13T17:05:22.534Z,101328.06
2023-02-13T17:07:57.508Z,101328.97
2023-02-13T17:10:39.551Z,101320.22
2023-02-13T17:13:13.456Z,101332.47
2023-02-13T17:15:46.666Z,101331.63
2023-02-13T17:18:17.383Z,101346.59
2023-02-13T17:20:46.219Z,101344.00
2023-02-13T17:23:22.986Z,101331.63
2023-02-13T17:25:54.217Z,101331.53
2023-02-13T17:28:25.466Z,101325.28
2023-02-13T17:30:56.964Z,101331.47
2023-02-13T17:33:30.253Z,101336.59
2023-02-13T17:36:01.359Z,101326.56
2023-02-13T17:38:34.104Z,101328.94
2023-02-13T17:41:02.972Z,101326.13
2023-02-13T17:43:31.728Z,101332.28
2023-02-13T17:46:02.320Z,101321.63
2023-02-13T17:48:30.892Z,101322.31
2023-02-13T17:51:00.614Z,101322.91
2023-02-13T17:53:30.744Z,101331.38
2023-02-13T17:56:02.249Z,101322.16
2023-02-13T17:58:31.294Z,101323.69
2023-02-13T18:01:02.188Z,101315.53
2023-02-13T18:03:30.809Z,101324.19
2023-02-13T18:06:02.239Z,101321.38
2023-02-13T18:08:30.760Z,101313.34
2023-02-13T18:11:01.918Z,101319.47
2023-02-13T18:13:30.463Z,101318.31
2023-02-13T18:15:58.675Z,101316.63
2023-02-13T18:18:28.005Z,101308.63
2023-02-13T18:20:57.497Z,101299.78
2023-02-13T18:23:29.841Z,101304.19
2023-02-13T18:26:10.374Z,101309.38
2023-02-13T18:28:38.955Z,101308.38
2023-02-13T18:31:10.251Z,101310.22
2023-02-13T18:33:38.455Z,101315.47
2023-02-13T18:36:06.946Z,101309.16
2023-02-13T18:38:35.204Z,101320.66
2023-02-13T18:41:04.201Z,101321.50
2023-02-13T18:43:32.954Z,101310.81
2023-02-13T18:46:06.981Z,101311.69
2023-02-13T18:48:39.737Z,101307.22
2023-02-13T18:51:10.342Z,101303.69
2023-02-13T18:53:38.549Z,101285.16
2023-02-13T18:56:08.266Z,101275.53
2023-02-13T18:58:37.429Z,101279.84
2023-02-13T19:01:14.767Z,101296.63
2023-02-13T19:03:43.093Z,101282.50
2023-02-13T19:06:14.105Z,101268.34
2023-02-13T19:08:44.043Z,101275.44
2023-02-13T19:11:17.438Z,101269.19
2023-02-13T19:13:47.777Z,101271.69
2023-02-13T19:16:18.024Z,101267.31
2023-02-13T19:18:48.816Z,101268.25
2023-02-13T19:21:17.659Z,101268.22
2023-02-13T19:23:49.969Z,101260.38
2023-02-13T19:26:21.034Z,101262.00
2023-02-13T19:28:49.468Z,101259.16
2023-02-13T19:31:27.274Z,101260.94
2023-02-13T19:33:56.370Z,101268.06
2023-02-13T19:36:27.142Z,101261.81
2023-02-13T19:39:17.517Z,101259.88
2023-02-13T19:41:45.616Z,101249.31
2023-02-13T19:44:14.194Z,101234.31
2023-02-13T19:46:42.713Z,101224.56
2023-02-13T19:49:11.600Z,101219.38
2023-02-13T19:51:43.048Z,101225.78
2023-02-13T19:54:11.910Z,101233.59
2023-02-13T19:56:42.340Z,101228.06
2023-02-13T19:59:14.372Z,101210.50
2023-02-13T20:01:46.062Z,101209.63
2023-02-13T20:04:15.905Z,101198.16
2023-02-13T20:06:44.779Z,101193.72
2023-02-13T20:09:14.940Z,101190.41
2023-02-13T20:11:44.359Z,101186.88
2023-02-13T20:14:15.312Z,101178.81
2023-02-13T20:16:46.650Z,101178.69
2023-02-13T20:19:17.160Z,101171.63
2023-02-13T20:21:47.318Z,101160.19
2023-02-13T20:24:16.586Z,101149.59
2023-02-13T20:26:47.155Z,101137.06
2023-02-13T20:29:16.151Z,101138.19
2023-02-13T20:31:45.041Z,101139.13
2023-02-13T20:34:13.347Z,101134.75
2023-02-13T20:36:44.125Z,101131.16
2023-02-13T20:39:12.533Z,101136.47
2023-02-13T20:41:41.471Z,101136.41
2023-02-13T20:44:12.392Z,101128.50
2023-02-13T20:46:41.007Z,101132.03
2023-02-13T20:49:11.726Z,101122.25
2023-02-13T20:51:40.171Z,101128.34
2023-02-13T20:54:08.765Z,101130.28
2023-02-13T20:56:37.652Z,101132.94
2023-02-13T20:59:05.866Z,101127.75
2023-02-13T21:01:41.722Z,101113.56
2023-02-13T21:04:14.058Z,101110.78
2023-02-13T21:06:42.434Z,101111.63
2023-02-13T21:09:10.790Z,101107.25
2023-02-13T21:11:43.616Z,101107.09
2023-02-13T21:14:12.946Z,101102.81
2023-02-13T21:16:43.129Z,101108.13
2023-02-13T21:19:19.784Z,101095.63
2023-02-13T21:21:48.459Z,101093.72
2023-02-13T21:24:20.220Z,101074.22
2023-02-13T21:26:52.828Z,101085.63
2023-02-13T21:29:21.636Z,101068.91
2023-02-13T21:31:51.543Z,101075.03
2023-02-13T21:34:20.541Z,101075.09
2023-02-13T21:36:50.702Z,101060.97
2023-02-13T21:39:19.212Z,101057.44
2023-02-13T21:41:47.734Z,101059.25
2023-02-13T21:44:17.165Z,101066.34
2023-02-13T21:46:46.041Z,101084.84
2023-02-13T21:49:17.166Z,101077.66
2023-02-13T21:51:45.935Z,101073.19
2023-02-13T21:54:34.752Z,101067.88
2023-02-13T21:57:03.758Z,101062.59
2023-02-13T21:59:33.680Z,101050.25
2023-02-13T22:02:03.130Z,101063.44
2023-02-13T22:04:34.607Z,101062.53
2023-02-13T22:07:02.721Z,101062.59
2023-02-13T22:09:31.046Z,101061.56
2023-02-13T22:11:59.069Z,101059.66
2023-02-13T22:14:28.013Z,101057.72
2023-02-13T22:16:56.179Z,101058.69
2023-02-13T22:19:26.643Z,101055.97
2023-02-13T22:21:55.459Z,101048.00
2023-02-13T22:24:24.032Z,101037.44
2023-02-13T22:26:52.381Z,101031.19
2023-02-13T22:29:23.435Z,101012.66
2023-02-13T22:31:54.729Z,101002.22
2023-02-13T22:34:23.044Z,100997.69
2023-02-13T22:36:51.901Z,100999.22
2023-02-13T22:39:20.184Z,100996.66
2023-02-13T22:41:50.219Z,100994.94
2023-02-13T22:44:18.912Z,101001.19
2023-02-13T22:46:47.109Z,100999.56
2023-02-13T22:49:15.898Z,100995.03
2023-02-13T22:51:45.397Z,100983.53
2023-02-13T22:54:13.955Z,100973.88
2023-02-13T22:56:42.944Z,100963.19
2023-02-13T22:59:14.595Z,100950.91
2023-02-13T23:01:43.052Z,100945.47
2023-02-13T23:04:12.701Z,100938.31
2023-02-13T23:06:43.697Z,100932.25
2023-02-13T23:09:12.298Z,100938.31
2023-02-13T23:11:59.082Z,100930.34
2023-02-13T23:14:27.671Z,100928.47
2023-02-13T23:17:14.812Z,100931.16
2023-02-13T23:19:43.856Z,100909.88
2023-02-13T23:22:16.716Z,100905.41
2023-02-13T23:24:45.000Z,100918.69
2023-02-13T23:27:13.382Z,100901.91
2023-02-13T23:29:42.879Z,100893.94
2023-02-13T23:32:11.478Z,100878.75
2023-02-13T23:34:39.723Z,100873.31
2023-02-13T23:37:07.652Z,100868.00
2023-02-13T23:39:36.018Z,100864.38
2023-02-13T23:42:04.444Z,100870.63
2023-02-13T23:44:34.415Z,100857.38
2023-02-13T23:47:03.825Z,100844.22
2023-02-13T23:49:35.091Z,100833.66
2023-02-13T23:52:03.154Z,100843.47
2023-02-13T23:54:31.243Z,100836.38
2023-02-13T23:56:59.777Z,100836.56
2023-02-13T23:59:28.285Z,100842.72
